createdAt,value
2019-05-29T00:00:31.778Z,0
2019-05-29T00:01:31.603Z,0
2019-05-29T00:02:31.357Z,0
2019-05-29T00:03:31.584Z,0
2019-05-29T00:04:31.581Z,0
2019-05-29T00:05:31.564Z,0
2019-05-29T00:06:31.566Z,0
2019-05-29T00:07:31.552Z,0
2019-05-29T00:08:31.300Z,0
2019-05-29T00:09:31.289Z,0
2019-05-29T00:10:31.525Z,0
2019-05-29T00:11:46.181Z,0
2019-05-29T00:12:31.499Z,0
2019-05-29T00:13:31.291Z,0
2019-05-29T00:14:36.936Z,0
2019-05-29T00:15:31.477Z,0
2019-05-29T00:16:31.543Z,0
2019-05-29T00:17:31.461Z,0
2019-05-29T00:18:31.204Z,0
2019-05-29T00:19:31.445Z,0
2019-05-29T00:20:31.439Z,0
2019-05-29T00:21:31.416Z,0
2019-05-29T00:22:31.450Z,0
2019-05-29T00:23:30.664Z,0
2019-05-29T00:24:32.717Z,0
2019-05-29T00:25:31.387Z,0
2019-05-29T00:26:31.367Z,0
2019-05-29T00:27:31.366Z,0
2019-05-29T00:28:30.867Z,0
2019-05-29T00:29:31.342Z,0
2019-05-29T00:30:31.344Z,0
2019-05-29T00:31:31.357Z,0
2019-05-29T00:32:31.317Z,0
2019-05-29T00:33:31.055Z,0
2019-05-29T00:34:31.292Z,0
2019-05-29T00:35:31.297Z,0
2019-05-29T00:36:31.284Z,0
2019-05-29T00:37:31.265Z,0
2019-05-29T00:38:30.765Z,0
2019-05-29T00:39:31.251Z,0
2019-05-29T00:40:31.239Z,0
2019-05-29T00:41:31.237Z,0
2019-05-29T00:42:31.267Z,0
2019-05-29T00:43:30.965Z,0
2019-05-29T00:44:44.339Z,0
2019-05-29T00:45:31.192Z,0
2019-05-29T00:46:31.176Z,0
2019-05-29T00:47:31.177Z,0
2019-05-29T00:48:30.683Z,0
2019-05-29T00:49:31.153Z,0
2019-05-29T00:50:30.899Z,0
2019-05-29T00:51:31.125Z,0
2019-05-29T00:52:31.121Z,0
2019-05-29T00:53:30.643Z,0
2019-05-29T00:54:31.106Z,0
2019-05-29T00:55:31.093Z,0
2019-05-29T00:56:31.115Z,0
2019-05-29T00:57:31.076Z,0
2019-05-29T00:58:30.821Z,0
2019-05-29T00:59:31.053Z,0
2019-05-29T01:00:31.053Z,0
2019-05-29T01:01:30.810Z,0
2019-05-29T01:02:31.040Z,0
2019-05-29T01:03:30.775Z,0
2019-05-29T01:04:31.013Z,0
2019-05-29T01:05:31.010Z,0
2019-05-29T01:06:30.994Z,0
2019-05-29T01:07:37.241Z,0
2019-05-29T01:08:30.727Z,0
2019-05-29T01:09:30.969Z,0
2019-05-29T01:10:30.951Z,0
2019-05-29T01:11:30.946Z,0
2019-05-29T01:12:43.675Z,0
2019-05-29T01:13:30.687Z,0
2019-05-29T01:14:30.962Z,0
2019-05-29T01:15:31.017Z,0
2019-05-29T01:16:31.230Z,0
2019-05-29T01:17:43.621Z,0
2019-05-29T01:18:31.380Z,0
2019-05-29T01:19:37.920Z,0
2019-05-29T01:20:44.220Z,0
2019-05-29T01:21:31.642Z,0
2019-05-29T01:22:31.901Z,0
2019-05-29T01:23:31.899Z,0
2019-05-29T01:24:32.119Z,0
2019-05-29T01:25:32.067Z,0
2019-05-29T01:26:30.569Z,0
2019-05-29T01:27:30.794Z,0
2019-05-29T01:28:30.294Z,0
2019-05-29T01:29:30.773Z,0
2019-05-29T01:30:30.781Z,0
2019-05-29T01:31:31.101Z,0
2019-05-29T01:32:31.120Z,0
2019-05-29T01:33:33.731Z,0
2019-05-29T01:34:31.477Z,0
2019-05-29T01:35:31.493Z,0
2019-05-29T01:36:31.502Z,0
2019-05-29T01:37:31.749Z,0
2019-05-29T01:38:30.781Z,0
2019-05-29T01:39:30.849Z,0
2019-05-29T01:40:36.693Z,0
2019-05-29T01:41:30.941Z,0
2019-05-29T01:42:30.979Z,0
2019-05-29T01:43:30.204Z,0
2019-05-29T01:44:32.517Z,0
2019-05-29T01:45:30.983Z,0
2019-05-29T01:46:31.074Z,0
2019-05-29T01:47:31.025Z,0
2019-05-29T01:48:30.593Z,0
2019-05-29T01:49:31.117Z,0
2019-05-29T01:50:32.631Z,0
2019-05-29T01:51:32.717Z,0
2019-05-29T01:52:32.541Z,0
2019-05-29T01:53:30.719Z,0
2019-05-29T01:54:31.141Z,0
2019-05-29T01:55:31.186Z,0
2019-05-29T01:56:32.778Z,0
2019-05-29T01:57:31.262Z,0
2019-05-29T01:58:30.970Z,0
2019-05-29T01:59:31.113Z,0
2019-05-29T02:00:33.193Z,0
2019-05-29T02:01:31.667Z,0
2019-05-29T02:02:32.928Z,0
2019-05-29T02:03:30.682Z,0
2019-05-29T02:04:31.412Z,0
2019-05-29T02:05:31.521Z,0
2019-05-29T02:06:31.390Z,0
2019-05-29T02:07:33.143Z,0
2019-05-29T02:08:31.287Z,0
2019-05-29T02:09:31.522Z,0
2019-05-29T02:10:31.618Z,0
2019-05-29T02:11:32.245Z,0
2019-05-29T02:12:31.497Z,0
2019-05-29T02:13:30.629Z,0
2019-05-29T02:14:31.895Z,0
2019-05-29T02:15:41.082Z,0
2019-05-29T02:16:31.610Z,0
2019-05-29T02:17:31.260Z,0
2019-05-29T02:18:29.600Z,0
2019-05-29T02:19:31.221Z,0
2019-05-29T02:20:31.851Z,0
2019-05-29T02:21:31.658Z,0
2019-05-29T02:22:30.426Z,0
2019-05-29T02:23:30.758Z,0
2019-05-29T02:24:30.650Z,0
2019-05-29T02:25:31.398Z,0
2019-05-29T02:26:31.455Z,0
2019-05-29T02:27:30.888Z,0
2019-05-29T02:28:31.223Z,0
2019-05-29T02:29:31.663Z,0
2019-05-29T02:30:37.393Z,0
2019-05-29T02:31:35.455Z,0
2019-05-29T02:32:32.606Z,0
2019-05-29T02:33:33.140Z,0
2019-05-29T02:34:34.784Z,0
2019-05-29T02:35:35.887Z,0
2019-05-29T02:36:34.285Z,0
2019-05-29T02:37:33.789Z,0
2019-05-29T02:38:33.970Z,0
2019-05-29T02:39:34.419Z,0
2019-05-29T02:40:34.996Z,0
2019-05-29T02:41:34.998Z,0
2019-05-29T02:42:33.851Z,0
2019-05-29T02:43:34.133Z,0
2019-05-29T02:44:34.328Z,0
2019-05-29T02:45:59.901Z,5
2019-05-29T02:46:34.824Z,5
2019-05-29T02:47:34.907Z,5
2019-05-29T02:48:34.914Z,5
2019-05-29T02:49:34.469Z,5
2019-05-29T02:50:35.882Z,10
2019-05-29T02:51:35.238Z,10
2019-05-29T02:52:33.368Z,10
2019-05-29T02:53:33.370Z,10
2019-05-29T02:54:36.796Z,10
2019-05-29T02:55:33.505Z,10
2019-05-29T02:56:33.768Z,15
2019-05-29T02:57:33.323Z,15
2019-05-29T02:58:36.228Z,15
2019-05-29T02:59:34.590Z,15
2019-05-29T03:00:34.010Z,20
2019-05-29T03:01:34.433Z,20
2019-05-29T03:02:34.719Z,20
2019-05-29T03:03:42.178Z,20
2019-05-29T03:04:35.578Z,25
2019-05-29T03:05:34.597Z,25
2019-05-29T03:06:34.987Z,25
2019-05-29T03:07:35.367Z,30
2019-05-29T03:08:36.964Z,30
2019-05-29T03:09:33.321Z,30
2019-05-29T03:10:33.402Z,30
2019-05-29T03:11:33.649Z,30
2019-05-29T03:12:33.860Z,30
2019-05-29T03:13:34.044Z,30
2019-05-29T03:14:34.748Z,35
2019-05-29T03:15:33.825Z,35
2019-05-29T03:16:37.124Z,35
2019-05-29T03:17:34.297Z,35
2019-05-29T03:18:35.392Z,35
2019-05-29T03:19:34.958Z,35
2019-05-29T03:20:34.649Z,35
2019-05-29T03:21:34.940Z,40
2019-05-29T03:22:35.546Z,40
2019-05-29T03:23:33.858Z,45
2019-05-29T03:24:35.352Z,50
2019-05-29T03:25:34.887Z,50
2019-05-29T03:26:40.872Z,55
2019-05-29T03:27:33.845Z,55
2019-05-29T03:28:32.823Z,55
2019-05-29T03:29:34.099Z,55
2019-05-29T03:30:46.952Z,50
2019-05-29T03:31:48.443Z,50
2019-05-29T03:32:46.941Z,50
2019-05-29T03:33:49.403Z,50
2019-05-29T03:34:46.685Z,50
2019-05-29T03:35:47.807Z,50
2019-05-29T03:36:47.596Z,55
2019-05-29T03:37:34.278Z,55
2019-05-29T03:38:32.427Z,55
2019-05-29T03:39:34.454Z,55
2019-05-29T03:40:35.097Z,55
2019-05-29T03:41:33.212Z,55
2019-05-29T03:42:34.324Z,60
2019-05-29T03:43:33.512Z,60
2019-05-29T03:44:33.139Z,60
2019-05-29T03:45:35.657Z,65
2019-05-29T03:46:51.766Z,65
2019-05-29T03:47:34.935Z,70
2019-05-29T03:48:32.726Z,70
2019-05-29T03:49:33.045Z,75
2019-05-29T03:50:35.082Z,80
2019-05-29T03:51:34.009Z,80
2019-05-29T03:52:34.612Z,85
2019-05-29T03:53:31.457Z,90
2019-05-29T03:54:35.449Z,90
2019-05-29T03:55:31.371Z,90
2019-05-29T03:56:34.628Z,95
2019-05-29T03:57:31.708Z,100
2019-05-29T03:58:34.592Z,100
2019-05-29T03:59:35.079Z,105
2019-05-29T04:00:46.256Z,110
2019-05-29T04:01:33.100Z,115
2019-05-29T04:02:31.284Z,115
2019-05-29T04:03:32.860Z,120
2019-05-29T04:04:31.408Z,120
2019-05-29T04:05:30.787Z,125
2019-05-29T04:06:30.792Z,125
2019-05-29T04:07:29.717Z,125
2019-05-29T04:08:31.543Z,130
2019-05-29T04:09:31.095Z,125
2019-05-29T04:10:32.063Z,130
2019-05-29T04:11:31.413Z,130
2019-05-29T04:12:29.632Z,125
2019-05-29T04:13:31.714Z,125
2019-05-29T04:14:31.519Z,120
2019-05-29T04:15:31.485Z,120
2019-05-29T04:16:47.373Z,120
2019-05-29T04:17:30.316Z,125
2019-05-29T04:18:31.376Z,130
2019-05-29T04:19:31.981Z,130
2019-05-29T04:20:31.514Z,140
2019-05-29T04:21:32.060Z,150
2019-05-29T04:22:34.244Z,155
2019-05-29T04:23:31.984Z,160
2019-05-29T04:24:31.841Z,165
2019-05-29T04:25:39.535Z,165
2019-05-29T04:26:32.038Z,175
2019-05-29T04:27:31.860Z,180
2019-05-29T04:28:31.965Z,195
2019-05-29T04:29:31.741Z,205
2019-05-29T04:30:31.788Z,205
2019-05-29T04:31:32.337Z,215
2019-05-29T04:32:31.896Z,225
2019-05-29T04:33:32.153Z,220
2019-05-29T04:34:30.079Z,225
2019-05-29T04:35:32.382Z,230
2019-05-29T04:36:32.802Z,220
2019-05-29T04:37:32.487Z,215
2019-05-29T04:38:33.204Z,215
2019-05-29T04:39:30.728Z,215
2019-05-29T04:40:32.519Z,215
2019-05-29T04:41:32.722Z,215
2019-05-29T04:42:33.504Z,215
2019-05-29T04:43:31.191Z,210
2019-05-29T04:44:30.694Z,205
2019-05-29T04:45:30.698Z,200
2019-05-29T04:46:29.978Z,195
2019-05-29T04:47:30.725Z,195
2019-05-29T04:48:29.320Z,190
2019-05-29T04:49:33.632Z,185
2019-05-29T04:50:29.231Z,185
2019-05-29T04:51:29.226Z,185
2019-05-29T04:52:29.195Z,185
2019-05-29T04:53:29.398Z,190
2019-05-29T04:54:29.328Z,205
2019-05-29T04:55:29.008Z,220
2019-05-29T04:56:29.005Z,230
2019-05-29T04:57:29.286Z,240
2019-05-29T04:58:28.841Z,245
2019-05-29T04:59:28.992Z,250
2019-05-29T05:00:29.089Z,260
2019-05-29T05:01:29.123Z,270
2019-05-29T05:02:29.070Z,270
2019-05-29T05:03:29.058Z,280
2019-05-29T05:04:29.150Z,290
2019-05-29T05:05:29.252Z,305
2019-05-29T05:06:29.142Z,310
2019-05-29T05:07:29.680Z,315
2019-05-29T05:08:29.167Z,325
2019-05-29T05:09:29.220Z,325
2019-05-29T05:10:29.237Z,330
2019-05-29T05:11:29.340Z,350
2019-05-29T05:12:29.574Z,345
2019-05-29T05:13:29.453Z,345
2019-05-29T05:14:29.569Z,345
2019-05-29T05:15:29.567Z,350
2019-05-29T05:16:29.695Z,360
2019-05-29T05:17:37.907Z,370
2019-05-29T05:18:29.731Z,370
2019-05-29T05:19:29.695Z,380
2019-05-29T05:20:29.925Z,385
2019-05-29T05:21:28.350Z,395
2019-05-29T05:22:29.927Z,400
2019-05-29T05:23:30.009Z,410
2019-05-29T05:24:30.060Z,410
2019-05-29T05:25:28.575Z,410
2019-05-29T05:26:29.982Z,410
2019-05-29T05:27:30.050Z,400
2019-05-29T05:28:29.989Z,385
2019-05-29T05:29:28.781Z,380
2019-05-29T05:30:28.814Z,375
2019-05-29T05:31:28.773Z,380
2019-05-29T05:32:28.817Z,395
2019-05-29T05:33:28.519Z,405
2019-05-29T05:34:28.519Z,410
2019-05-29T05:35:28.526Z,410
2019-05-29T05:36:28.751Z,390
2019-05-29T05:37:28.764Z,375
2019-05-29T05:38:28.742Z,365
2019-05-29T05:39:28.985Z,390
2019-05-29T05:40:28.723Z,405
2019-05-29T05:41:28.722Z,390
2019-05-29T05:42:28.707Z,355
2019-05-29T05:43:33.326Z,340
2019-05-29T05:44:28.691Z,335
2019-05-29T05:45:28.694Z,335
2019-05-29T05:46:33.314Z,335
2019-05-29T05:47:56.768Z,335
2019-05-29T05:48:28.674Z,320
2019-05-29T05:49:28.676Z,300
2019-05-29T05:50:28.695Z,295
2019-05-29T05:51:28.668Z,300
2019-05-29T05:52:28.713Z,290
2019-05-29T05:53:28.660Z,280
2019-05-29T05:54:28.646Z,275
2019-05-29T05:55:28.644Z,280
2019-05-29T05:56:28.652Z,295
2019-05-29T05:57:28.635Z,315
2019-05-29T05:58:28.638Z,345
2019-05-29T05:59:28.679Z,395
2019-05-29T06:00:28.619Z,455
2019-05-29T06:01:28.617Z,515
2019-05-29T06:02:28.613Z,525
2019-05-29T06:03:28.595Z,560
2019-05-29T06:04:28.588Z,615
2019-05-29T06:05:28.793Z,665
2019-05-29T06:06:28.585Z,705
2019-05-29T06:07:28.338Z,750
2019-05-29T06:08:28.573Z,765
2019-05-29T06:09:28.574Z,760
2019-05-29T06:10:28.573Z,925
2019-05-29T06:11:28.553Z,810
2019-05-29T06:12:28.589Z,810
2019-05-29T06:13:28.549Z,900
2019-05-29T06:14:28.542Z,1340
2019-05-29T06:15:28.623Z,885
2019-05-29T06:16:28.621Z,940
2019-05-29T06:17:32.328Z,960
2019-05-29T06:18:30.709Z,1120
2019-05-29T06:19:28.574Z,1550
2019-05-29T06:20:28.578Z,1460
2019-05-29T06:21:28.517Z,1595
2019-05-29T06:22:28.522Z,1345
2019-05-29T06:23:28.517Z,1620
2019-05-29T06:24:28.535Z,1230
2019-05-29T06:25:28.531Z,1570
2019-05-29T06:26:28.533Z,1435
2019-05-29T06:27:28.527Z,1455
2019-05-29T06:28:28.516Z,1565
2019-05-29T06:29:28.711Z,1525
2019-05-29T06:30:28.293Z,1660
2019-05-29T06:31:33.202Z,1625
2019-05-29T06:32:28.521Z,1210
2019-05-29T06:33:28.286Z,1115
2019-05-29T06:34:28.293Z,970
2019-05-29T06:35:28.536Z,930
2019-05-29T06:36:28.552Z,895
2019-05-29T06:37:28.573Z,965
2019-05-29T06:38:28.074Z,1095
2019-05-29T06:39:28.546Z,1270
2019-05-29T06:40:28.560Z,955
2019-05-29T06:41:28.750Z,1165
2019-05-29T06:42:28.609Z,1270
2019-05-29T06:43:28.591Z,1360
2019-05-29T06:44:28.732Z,1585
2019-05-29T06:45:28.579Z,1715
2019-05-29T06:46:28.595Z,1745
2019-05-29T06:47:28.612Z,1755
2019-05-29T06:49:03.663Z,1575
2019-05-29T06:49:28.590Z,1605
2019-05-29T06:50:28.599Z,1640
2019-05-29T06:51:28.601Z,1660
2019-05-29T06:52:28.606Z,1570
2019-05-29T06:53:28.614Z,1700
2019-05-29T06:54:28.376Z,1680
2019-05-29T06:55:28.656Z,1920
2019-05-29T06:56:28.630Z,1940
2019-05-29T06:57:32.962Z,1950
2019-05-29T06:58:28.653Z,2055
2019-05-29T06:59:28.658Z,1250
2019-05-29T07:00:47.635Z,1455
2019-05-29T07:01:28.666Z,1795
2019-05-29T07:02:31.738Z,1720
2019-05-29T07:03:28.693Z,1835
2019-05-29T07:04:28.678Z,1640
2019-05-29T07:05:35.590Z,1445
2019-05-29T07:06:28.696Z,1645
2019-05-29T07:07:28.715Z,1580
2019-05-29T07:08:54.330Z,1535
2019-05-29T07:09:28.742Z,1655
2019-05-29T07:10:28.599Z,1855
2019-05-29T07:11:28.747Z,1690
2019-05-29T07:12:28.764Z,1780
2019-05-29T07:13:28.787Z,1590
2019-05-29T07:14:28.766Z,1285
2019-05-29T07:15:28.814Z,870
2019-05-29T07:16:57.849Z,1595
2019-05-29T07:17:28.801Z,1640
2019-05-29T07:18:28.848Z,1560
2019-05-29T07:20:07.695Z,685
2019-05-29T07:20:28.818Z,750
2019-05-29T07:21:28.830Z,1520
2019-05-29T07:22:28.850Z,1485
2019-05-29T07:23:28.850Z,750
2019-05-29T07:24:28.856Z,790
2019-05-29T07:25:29.084Z,1040
2019-05-29T07:26:28.864Z,1710
2019-05-29T07:27:28.890Z,1560
2019-05-29T07:28:28.838Z,1570
2019-05-29T07:29:28.946Z,1490
2019-05-29T07:30:28.891Z,1615
2019-05-29T07:31:28.906Z,1595
2019-05-29T07:32:28.955Z,1465
2019-05-29T07:33:28.913Z,1430
2019-05-29T07:34:28.959Z,1275
2019-05-29T07:35:28.916Z,1030
2019-05-29T07:36:28.966Z,1070
2019-05-29T07:37:28.696Z,1080
2019-05-29T07:38:28.944Z,1045
2019-05-29T07:39:28.941Z,1055
2019-05-29T07:40:29.020Z,1310
2019-05-29T07:41:28.951Z,1405
2019-05-29T07:42:28.971Z,1400
2019-05-29T07:43:28.975Z,1370
2019-05-29T07:44:28.968Z,1280
2019-05-29T07:45:28.976Z,1245
2019-05-29T07:46:28.992Z,1240
2019-05-29T07:47:29.115Z,1375
2019-05-29T07:48:28.999Z,1445
2019-05-29T07:50:40.335Z,1515
2019-05-29T07:51:04.418Z,1545
2019-05-29T07:51:53.489Z,1535
2019-05-29T07:52:53.966Z,1565
2019-05-29T07:53:51.449Z,1630
2019-05-29T07:54:53.575Z,1485
2019-05-29T07:55:51.594Z,720
2019-05-29T07:56:51.309Z,1745
2019-05-29T07:57:51.960Z,1830
2019-05-29T07:59:08.697Z,2060
2019-05-29T07:59:51.398Z,1970
2019-05-29T08:01:20.439Z,1885
2019-05-29T08:01:51.627Z,1365
2019-05-29T08:02:52.451Z,645
2019-05-29T08:03:52.217Z,710
2019-05-29T08:04:52.331Z,1560
2019-05-29T08:05:58.196Z,1850
2019-05-29T08:07:01.716Z,740
2019-05-29T08:07:52.279Z,680
2019-05-29T08:08:50.425Z,600
2019-05-29T08:09:52.171Z,570
2019-05-29T08:10:52.581Z,595
2019-05-29T08:11:52.573Z,645
2019-05-29T08:13:02.200Z,955
2019-05-29T08:13:50.736Z,2795
2019-05-29T08:14:52.886Z,2825
2019-05-29T08:16:10.384Z,850
2019-05-29T08:16:52.817Z,735
2019-05-29T08:17:52.883Z,675
2019-05-29T08:18:58.870Z,595
2019-05-29T08:20:14.221Z,600
2019-05-29T08:20:51.326Z,635
2019-05-29T08:21:53.557Z,890
2019-05-29T08:22:53.779Z,665
2019-05-29T08:23:51.425Z,625
2019-05-29T08:24:55.877Z,630
2019-05-29T08:25:52.387Z,645
2019-05-29T08:26:51.670Z,1250
2019-05-29T08:27:53.146Z,865
2019-05-29T08:28:53.464Z,670
2019-05-29T08:29:53.523Z,720
2019-05-29T08:31:01.247Z,1615
2019-05-29T08:31:51.541Z,820
2019-05-29T08:32:51.713Z,1375
2019-05-29T08:33:51.335Z,1985
2019-05-29T08:34:51.793Z,2050
2019-05-29T08:36:02.932Z,2145
2019-05-29T08:37:14.229Z,2055
2019-05-29T08:37:51.620Z,2110
2019-05-29T08:38:54.508Z,2020
2019-05-29T08:39:51.900Z,2040
2019-05-29T08:40:51.895Z,2025
2019-05-29T08:42:28.583Z,630
2019-05-29T08:42:51.786Z,580
2019-05-29T08:43:55.472Z,555
2019-05-29T08:44:52.418Z,510
2019-05-29T08:45:55.066Z,555
2019-05-29T08:47:15.542Z,1620
2019-05-29T08:47:52.088Z,1510
2019-05-29T08:48:52.476Z,1520
2019-05-29T08:50:19.828Z,1365
2019-05-29T08:50:52.285Z,1110
2019-05-29T08:52:08.142Z,685
2019-05-29T08:52:52.470Z,630
2019-05-29T08:53:57.227Z,625
2019-05-29T08:54:52.747Z,610
2019-05-29T08:55:53.002Z,610
2019-05-29T08:56:53.091Z,615
2019-05-29T08:57:53.159Z,640
2019-05-29T08:58:53.383Z,695
2019-05-29T08:59:52.596Z,725
2019-05-29T09:01:00.682Z,690
2019-05-29T09:01:58.101Z,640
2019-05-29T09:02:55.239Z,635
2019-05-29T09:03:54.133Z,655
2019-05-29T09:04:57.806Z,665
2019-05-29T09:06:13.650Z,655
2019-05-29T09:06:53.360Z,670
2019-05-29T09:07:56.811Z,660
2019-05-29T09:08:57.227Z,620
2019-05-29T09:09:51.663Z,575
2019-05-29T09:10:53.863Z,570
2019-05-29T09:11:54.134Z,540
2019-05-29T09:13:09.107Z,510
2019-05-29T09:13:50.500Z,495
2019-05-29T09:14:50.320Z,500
2019-05-29T09:15:50.503Z,505
2019-05-29T09:16:50.510Z,515
2019-05-29T09:17:50.497Z,535
2019-05-29T09:18:50.264Z,565
2019-05-29T09:19:50.591Z,590
2019-05-29T09:21:12.461Z,635
2019-05-29T09:21:50.498Z,640
2019-05-29T09:22:50.504Z,585
2019-05-29T09:23:50.540Z,530
2019-05-29T09:24:50.505Z,495
2019-05-29T09:25:50.500Z,480
2019-05-29T09:26:53.576Z,460
2019-05-29T09:27:50.604Z,435
2019-05-29T09:28:50.253Z,410
2019-05-29T09:29:50.499Z,390
2019-05-29T09:30:50.550Z,380
2019-05-29T09:31:50.512Z,380
2019-05-29T09:33:00.498Z,385
2019-05-29T09:33:50.500Z,385
2019-05-29T09:34:54.761Z,395
2019-05-29T09:35:50.484Z,420
2019-05-29T09:36:50.827Z,430
2019-05-29T09:37:50.471Z,460
2019-05-29T09:38:50.958Z,480
2019-05-29T09:39:50.518Z,505
2019-05-29T09:40:52.692Z,520
2019-05-29T09:41:50.467Z,520
2019-05-29T09:42:50.513Z,530
2019-05-29T09:44:07.765Z,520
2019-05-29T09:44:50.464Z,510
2019-05-29T09:45:50.461Z,495
2019-05-29T09:46:50.690Z,500
2019-05-29T09:47:50.479Z,560
2019-05-29T09:49:01.535Z,620
2019-05-29T09:49:50.451Z,625
2019-05-29T09:53:04.139Z,470
2019-05-29T09:54:14.245Z,445
2019-05-29T09:55:14.034Z,420
2019-05-29T09:56:14.035Z,425
2019-05-29T09:57:17.688Z,425
2019-05-29T09:58:13.868Z,425
2019-05-29T09:59:14.073Z,415
2019-05-29T10:00:14.040Z,405
2019-05-29T10:01:33.187Z,395
2019-05-29T10:02:18.092Z,395
2019-05-29T10:03:14.026Z,415
2019-05-29T10:04:15.790Z,430
2019-05-29T10:05:14.029Z,440
2019-05-29T10:06:16.628Z,455
2019-05-29T10:07:14.492Z,460
2019-05-29T10:08:16.921Z,465
2019-05-29T10:09:14.041Z,465
2019-05-29T10:10:14.693Z,475
2019-05-29T10:11:19.946Z,495
2019-05-29T10:12:16.337Z,520
2019-05-29T10:13:13.789Z,515
2019-05-29T10:14:14.558Z,505
2019-05-29T10:15:13.749Z,495
2019-05-29T10:16:14.166Z,490
2019-05-29T10:17:21.240Z,445
2019-05-29T10:18:38.339Z,380
2019-05-29T10:19:14.465Z,360
2019-05-29T10:20:14.602Z,360
2019-05-29T10:21:14.630Z,365
2019-05-29T10:22:15.156Z,365
2019-05-29T10:23:14.600Z,360
2019-05-29T10:24:15.572Z,350
2019-05-29T10:25:15.278Z,355
2019-05-29T10:26:15.849Z,365
2019-05-29T10:27:16.018Z,365
2019-05-29T10:28:15.597Z,370
2019-05-29T10:29:19.098Z,375
2019-05-29T10:30:13.950Z,380
2019-05-29T10:31:14.716Z,395
2019-05-29T10:34:13.993Z,455
2019-05-29T10:35:13.947Z,480
2019-05-29T10:36:14.031Z,485
2019-05-29T10:37:13.925Z,505
2019-05-29T10:38:13.753Z,530
2019-05-29T10:39:17.494Z,545
2019-05-29T10:40:13.942Z,545
2019-05-29T10:41:16.512Z,505
2019-05-29T10:42:13.928Z,475
2019-05-29T10:43:13.697Z,450
2019-05-29T10:44:17.456Z,415
2019-05-29T10:45:13.940Z,390
2019-05-29T10:46:14.262Z,355
2019-05-29T10:47:14.001Z,330
2019-05-29T10:48:13.688Z,315
2019-05-29T10:49:14.504Z,290
2019-05-29T10:50:14.072Z,265
2019-05-29T10:51:13.887Z,265
2019-05-29T10:52:24.876Z,285
2019-05-29T10:53:13.655Z,285
2019-05-29T10:54:13.973Z,280
2019-05-29T10:55:13.890Z,275
2019-05-29T10:56:13.890Z,280
2019-05-29T10:57:13.903Z,265
2019-05-29T10:58:13.651Z,260
2019-05-29T10:59:13.870Z,265
2019-05-29T11:00:13.878Z,260
2019-05-29T11:01:13.666Z,265
2019-05-29T11:02:13.909Z,270
2019-05-29T11:03:13.930Z,275
2019-05-29T11:04:13.931Z,270
2019-05-29T11:05:13.618Z,275
2019-05-29T11:06:13.868Z,280
2019-05-29T11:07:13.869Z,275
2019-05-29T11:08:13.596Z,275
2019-05-29T11:09:13.841Z,280
2019-05-29T11:10:16.078Z,280
2019-05-29T11:11:13.839Z,275
2019-05-29T11:12:13.856Z,260
2019-05-29T11:13:13.585Z,250
2019-05-29T11:14:13.826Z,250
2019-05-29T11:15:30.284Z,255
2019-05-29T11:16:13.589Z,260
2019-05-29T11:17:13.878Z,270
2019-05-29T11:18:13.810Z,270
2019-05-29T11:19:13.577Z,275
2019-05-29T11:20:13.836Z,285
2019-05-29T11:21:13.801Z,295
2019-05-29T11:22:34.758Z,290
2019-05-29T11:23:13.807Z,300
2019-05-29T11:24:13.841Z,325
2019-05-29T11:25:34.768Z,355
2019-05-29T11:26:13.778Z,355
2019-05-29T11:27:13.554Z,355
2019-05-29T11:28:13.616Z,345
2019-05-29T11:29:13.792Z,330
2019-05-29T11:30:14.209Z,325
2019-05-29T11:31:15.927Z,320
2019-05-29T11:32:13.805Z,315
2019-05-29T11:33:13.815Z,305
2019-05-29T11:34:13.769Z,295
2019-05-29T11:35:13.779Z,290
2019-05-29T11:36:21.624Z,280
2019-05-29T11:37:13.749Z,280
2019-05-29T11:38:13.638Z,290
2019-05-29T11:39:15.760Z,310
2019-05-29T11:40:13.746Z,315
2019-05-29T11:41:35.453Z,325
2019-05-29T11:42:29.377Z,330
2019-05-29T11:43:13.741Z,330
2019-05-29T11:44:13.735Z,320
2019-05-29T11:45:13.507Z,315
2019-05-29T11:46:13.729Z,310
2019-05-29T11:47:13.736Z,315
2019-05-29T11:48:14.593Z,325
2019-05-29T11:49:13.740Z,345
2019-05-29T11:50:28.657Z,360
2019-05-29T11:51:13.716Z,365
2019-05-29T11:52:50.298Z,350
2019-05-29T11:53:13.471Z,325
2019-05-29T11:54:13.696Z,295
2019-05-29T11:55:17.213Z,260
2019-05-29T11:56:13.838Z,250
2019-05-29T11:57:13.850Z,240
2019-05-29T11:58:29.942Z,230
2019-05-29T11:59:13.696Z,230
2019-05-29T12:00:28.699Z,240
2019-05-29T12:01:13.689Z,245
2019-05-29T12:02:13.686Z,255
2019-05-29T12:03:13.692Z,260
2019-05-29T12:04:34.259Z,260
2019-05-29T12:05:13.668Z,250
2019-05-29T12:06:13.960Z,225
2019-05-29T12:07:13.665Z,205
2019-05-29T12:08:14.050Z,195
2019-05-29T12:09:29.006Z,200
2019-05-29T12:10:15.747Z,205
2019-05-29T12:11:16.541Z,210
2019-05-29T12:12:13.658Z,215
2019-05-29T12:13:13.404Z,220
2019-05-29T12:14:13.650Z,225
2019-05-29T12:15:25.752Z,235
2019-05-29T12:16:13.424Z,245
2019-05-29T12:17:13.820Z,260
2019-05-29T12:18:32.139Z,285
2019-05-29T12:19:13.623Z,305
2019-05-29T12:20:35.397Z,325
2019-05-29T12:21:13.623Z,320
2019-05-29T12:22:13.652Z,310
2019-05-29T12:23:34.529Z,285
2019-05-29T12:24:13.606Z,280
2019-05-29T12:25:13.616Z,285
2019-05-29T12:26:30.637Z,295
2019-05-29T12:27:13.672Z,300
2019-05-29T12:28:13.608Z,315
2019-05-29T12:29:20.705Z,330
2019-05-29T12:30:13.585Z,340
2019-05-29T12:31:13.615Z,350
2019-05-29T12:32:20.439Z,365
2019-05-29T12:33:13.330Z,370
2019-05-29T12:34:27.371Z,365
2019-05-29T12:35:13.567Z,355
2019-05-29T12:36:13.558Z,345
2019-05-29T12:37:13.639Z,330
2019-05-29T12:38:13.558Z,320
2019-05-29T12:39:13.787Z,315
2019-05-29T12:40:13.718Z,310
2019-05-29T12:41:13.551Z,300
2019-05-29T12:42:13.547Z,295
2019-05-29T12:43:30.561Z,285
2019-05-29T12:44:13.340Z,265
2019-05-29T12:45:13.835Z,250
2019-05-29T12:46:13.655Z,235
2019-05-29T12:47:13.980Z,230
2019-05-29T12:48:37.773Z,235
2019-05-29T12:49:13.529Z,225
2019-05-29T12:50:13.897Z,225
2019-05-29T12:51:13.819Z,230
2019-05-29T12:52:17.924Z,230
2019-05-29T12:53:31.492Z,235
2019-05-29T12:54:14.717Z,235
2019-05-29T12:55:13.724Z,230
2019-05-29T12:56:14.136Z,230
2019-05-29T12:57:13.874Z,235
2019-05-29T12:58:13.994Z,230
2019-05-29T12:59:14.163Z,230
2019-05-29T13:00:15.160Z,225
2019-05-29T13:01:14.706Z,210
2019-05-29T13:02:14.259Z,200
2019-05-29T13:03:14.790Z,195
2019-05-29T13:04:14.266Z,195
2019-05-29T13:05:27.166Z,205
2019-05-29T13:06:13.949Z,205
2019-05-29T13:07:14.219Z,200
2019-05-29T13:08:14.659Z,200
2019-05-29T13:09:14.517Z,200
2019-05-29T13:10:31.660Z,200
2019-05-29T13:11:14.540Z,205
2019-05-29T13:12:14.308Z,210
2019-05-29T13:13:20.050Z,220
2019-05-29T13:14:14.172Z,230
2019-05-29T13:15:15.235Z,230
2019-05-29T13:16:14.741Z,225
2019-05-29T13:17:14.791Z,215
2019-05-29T13:18:19.192Z,200
2019-05-29T13:19:14.873Z,190
2019-05-29T13:20:30.075Z,185
2019-05-29T13:21:14.569Z,180
2019-05-29T13:22:14.180Z,185
2019-05-29T13:23:16.294Z,185
2019-05-29T13:24:18.922Z,185
2019-05-29T13:25:16.811Z,190
2019-05-29T13:26:13.202Z,190
2019-05-29T13:27:13.601Z,190
2019-05-29T13:28:15.333Z,195
2019-05-29T13:29:13.969Z,210
2019-05-29T13:30:17.184Z,210
2019-05-29T13:31:14.197Z,210
2019-05-29T13:32:15.507Z,210
2019-05-29T13:33:18.105Z,210
2019-05-29T13:34:14.405Z,220
2019-05-29T13:35:13.746Z,235
2019-05-29T13:36:13.744Z,255
2019-05-29T13:37:17.452Z,275
2019-05-29T13:38:14.409Z,280
2019-05-29T13:39:14.346Z,290
2019-05-29T13:40:16.320Z,295
2019-05-29T13:41:14.042Z,295
2019-05-29T13:42:19.475Z,290
2019-05-29T13:43:23.299Z,270
2019-05-29T13:44:14.333Z,260
2019-05-29T13:45:25.889Z,255
2019-05-29T13:46:14.184Z,255
2019-05-29T13:47:15.438Z,250
2019-05-29T13:48:14.872Z,240
2019-05-29T13:49:14.508Z,230
2019-05-29T13:50:19.986Z,225
2019-05-29T13:51:14.952Z,225
2019-05-29T13:52:19.864Z,215
2019-05-29T13:53:14.766Z,210
2019-05-29T13:54:25.361Z,210
2019-05-29T13:55:13.303Z,210
2019-05-29T13:56:15.016Z,220
2019-05-29T13:57:15.934Z,230
2019-05-29T13:58:13.114Z,235
2019-05-29T13:59:15.553Z,250
2019-05-29T14:00:41.303Z,255
2019-05-29T14:01:13.843Z,255